Arlington, VA

2:06 PM EDT on May 27, 2015 (GMT -0400)
Davison Army Air Field | | Change Station
CLOSE
Current Station
Airport
Location: Fort Belvoir,
Elevation: 69 ft
Nearby Weather Stations

Elev 69 ft 38.72 °N, 77.18 °W | Updated 8 minutes ago

Partly Cloudy
Partly Cloudy
88 °F
Feels Like 91 °F
N
12
Wind Variable Wind from SSE

Today
High -- | Low -- °F
--% Chance of Precip.
Yesterday
High -- | Low -- °F
Precip. -- in
5:47 AM 8:24 PM
Waxing Gibbous, 69% visible
Pressure 30.14 in
Visibility 10.0 miles
Clouds Clear
Heat Index 91 °F
Dew Point 67 °F
Humidity 49%
Rainfall 0.00 in
Snow Depth Not available.
UV 11 out of 12
Pollen 7.10 out of 12
Air Quality Not available.
Flu Activity No Activity
METAR KDAA 271758Z AUTO 16010KT 10SM CLR 31/19 A3013 RMK AO2 SLP206 T03110193 10311 20233 57012

More Conditions Fewer Conditions

Pressure 30.14 in
Visibility 10.0 miles
Clouds Clear
Heat Index 91 °F
Dew Point 67 °F
Humidity 49%
Rainfall 0.00 in
Snow Depth Not available.
UV 11 out of 12
Pollen 7.10 out of 12
Air Quality Not available.
Flu Activity No Activity
METAR KDAA 271758Z AUTO 16010KT 10SM CLR 31/19 A3013 RMK AO2 SLP206 T03110193 10311 20233 57012

More Conditions Fewer Conditions

10-Day Weather Forecast

Almanac

Astronomy

May. 27, 2015 Rise Set
Actual Time
Civil Twilight
Nautical Twilight
Astronomical Twilight
Moon
Length of Visible Light
Length of Day
Tomorrow will be .
, % of the Moon is Illuminated

Today's Extremes

State Highs State Lows

Community

WunderPhotos

Upload Photos

1,824,736 photos uploaded!

WunderBlogs® & News

Nearby

Air Quality

  Air Quality AQ Index Pollutant
Not available.

Snow Depth

Station Depth Elevation

Earthquake Activity

City Distance Mag. Time & Date
Minimum magnitude displayed is 2.5.

Coastal Water Temperatures

Place Temperature

Stations

Nearby Weather Stations

Station Location Temp. Windchill Dew Point Humidity Wind Precip. Elev Updated Type
                   
Severe Thunderstorm Watch
Statement as of 1:59 PM EDT on May 27, 2015

Severe Thunderstorm Watch 227 remains in effect until 700 PM EDT

VA
. Virginia counties included are

Arlington Fairfax Loudoun




Virginia independent cities included are

Alexandria Fairfax Falls church